sensor_id;sensor_type;location;lat;lon;timestamp;temperature;humidity
5280;DHT22;2663;53.588;10.010;2023-02-01T00:00:15;6.70;99.90
5280;DHT22;2663;53.588;10.010;2023-02-01T00:02:42;6.60;99.90
5280;DHT22;2663;53.588;10.010;2023-02-01T00:05:09;6.60;99.90
5280;DHT22;2663;53.588;10.010;2023-02-01T00:07:37;6.60;99.90
5280;DHT22;2663;53.588;10.010;2023-02-01T00:10:05;6.60;99.90
5280;DHT22;2663;53.588;10.010;2023-02-01T00:12:32;6.60;99.90
5280;DHT22;2663;53.588;10.010;2023-02-01T00:14:59;6.60;99.90
5280;DHT22;2663;53.588;10.010;2023-02-01T00:17:25;6.50;99.90
5280;DHT22;2663;53.588;10.010;2023-02-01T00:19:52;6.50;99.90
5280;DHT22;2663;53.588;10.010;2023-02-01T00:22:19;8.70;99.90
5280;DHT22;2663;53.588;10.010;2023-02-01T00:24:45;6.50;99.90
5280;DHT22;2663;53.588;10.010;2023-02-01T00:27:12;7.00;99.90
5280;DHT22;2663;53.588;10.010;2023-02-01T00:29:44;6.60;99.90
5280;DHT22;2663;53.588;10.010;2023-02-01T00:32:11;6.60;99.90
5280;DHT22;2663;53.588;10.010;2023-02-01T00:34:38;6.60;99.90
5280;DHT22;2663;53.588;10.010;2023-02-01T00:37:05;6.60;99.90
5280;DHT22;2663;53.588;10.010;2023-02-01T00:39:32;6.60;99.90
5280;DHT22;2663;53.588;10.010;2023-02-01T00:42:00;6.70;99.90
5280;DHT22;2663;53.588;10.010;2023-02-01T00:44:28;6.70;99.90
5280;DHT22;2663;53.588;10.010;2023-02-01T00:47:00;6.70;99.90
5280;DHT22;2663;53.588;10.010;2023-02-01T00:49:27;6.70;99.90
5280;DHT22;2663;53.588;10.010;2023-02-01T00:51:54;6.80;99.90
5280;DHT22;2663;53.588;10.010;2023-02-01T00:54:21;6.80;99.90
5280;DHT22;2663;53.588;10.010;2023-02-01T00:56:47;6.80;99.90
5280;DHT22;2663;53.588;10.010;2023-02-01T00:59:14;7.00;99.90
5280;DHT22;2663;53.588;10.010;2023-02-01T01:01:41;6.80;99.90
5280;DHT22;2663;53.588;10.010;2023-02-01T01:04:07;6.80;99.90
5280;DHT22;2663;53.588;10.010;2023-02-01T01:06:34;6.90;99.90
5280;DHT22;2663;53.588;10.010;2023-02-01T01:09:04;6.90;99.90
5280;DHT22;2663;53.588;10.010;2023-02-01T01:11:33;6.80;99.90
5280;DHT22;2663;53.588;10.010;2023-02-01T01:14:00;6.80;99.90
5280;DHT22;2663;53.588;10.010;2023-02-01T01:16:29;6.90;99.90
5280;DHT22;2663;53.588;10.010;2023-02-01T01:18:57;6.90;99.90
5280;DHT22;2663;53.588;10.010;2023-02-01T01:21:24;6.90;99.90
5280;DHT22;2663;53.588;10.010;2023-02-01T01:23:51;6.90;99.90
5280;DHT22;2663;53.588;10.010;2023-02-01T01:26:20;6.90;99.90
5280;DHT22;2663;53.588;10.010;2023-02-01T01:28:47;7.00;99.90
5280;DHT22;2663;53.588;10.010;2023-02-01T01:31:16;6.90;99.90
5280;DHT22;2663;53.588;10.010;2023-02-01T01:33:43;8.40;99.90
5280;DHT22;2663;53.588;10.010;2023-02-01T01:36:11;6.90;99.90
5280;DHT22;2663;53.588;10.010;2023-02-01T01:38:39;6.90;99.90
5280;DHT22;2663;53.588;10.010;2023-02-01T01:41:07;6.90;99.90
5280;DHT22;2663;53.588;10.010;2023-02-01T01:44:04;6.90;99.90
5280;DHT22;2663;53.588;10.010;2023-02-01T01:46:37;6.90;99.90
5280;DHT22;2663;53.588;10.010;2023-02-01T01:49:14;6.90;99.90
5280;DHT22;2663;53.588;10.010;2023-02-01T01:52:00;6.90;99.90
5280;DHT22;2663;53.588;10.010;2023-02-01T01:54:33;6.90;99.90
5280;DHT22;2663;53.588;10.010;2023-02-01T01:57:11;6.90;99.90
5280;DHT22;2663;53.588;10.010;2023-02-01T01:59:41;6.90;99.90
5280;DHT22;2663;53.588;10.010;2023-02-01T02:02:09;7.00;99.90
5280;DHT22;2663;53.588;10.010;2023-02-01T02:04:36;7.00;99.90
5280;DHT22;2663;53.588;10.010;2023-02-01T02:07:08;7.00;99.90
5280;DHT22;2663;53.588;10.010;2023-02-01T02:09:36;7.00;99.90
5280;DHT22;2663;53.588;10.010;2023-02-01T02:12:05;7.00;99.90
5280;DHT22;2663;53.588;10.010;2023-02-01T02:14:31;7.00;99.90
5280;DHT22;2663;53.588;10.010;2023-02-01T02:26:22;7.00;99.90
5280;DHT22;2663;53.588;10.010;2023-02-01T02:31:54;6.90;99.90
5280;DHT22;2663;53.588;10.010;2023-02-01T02:34:55;6.90;99.90
5280;DHT22;2663;53.588;10.010;2023-02-01T02:37:47;6.90;99.90
5280;DHT22;2663;53.588;10.010;2023-02-01T02:40:20;6.90;99.90
5280;DHT22;2663;53.588;10.010;2023-02-01T02:43:02;6.90;99.90
5280;DHT22;2663;53.588;10.010;2023-02-01T02:46:02;8.70;99.90
5280;DHT22;2663;53.588;10.010;2023-02-01T02:49:05;6.90;99.90
5280;DHT22;2663;53.588;10.010;2023-02-01T02:54:33;6.80;99.90
5280;DHT22;2663;53.588;10.010;2023-02-01T03:00:09;6.70;99.90
5280;DHT22;2663;53.588;10.010;2023-02-01T03:02:55;6.70;99.90
5280;DHT22;2663;53.588;10.010;2023-02-01T03:05:44;8.10;99.90
5280;DHT22;2663;53.588;10.010;2023-02-01T03:08:25;6.70;99.90
5280;DHT22;2663;53.588;10.010;2023-02-01T03:11:02;6.70;99.90
5280;DHT22;2663;53.588;10.010;2023-02-01T03:13:42;6.70;99.90
5280;DHT22;2663;53.588;10.010;2023-02-01T03:16:24;6.70;99.90
5280;DHT22;2663;53.588;10.010;2023-02-01T03:24:07;6.60;99.90
5280;DHT22;2663;53.588;10.010;2023-02-01T03:26:39;6.50;99.90
5280;DHT22;2663;53.588;10.010;2023-02-01T03:29:12;6.50;99.90
5280;DHT22;2663;53.588;10.010;2023-02-01T03:31:41;6.40;99.90
5280;DHT22;2663;53.588;10.010;2023-02-01T03:34:07;6.40;99.90
5280;DHT22;2663;53.588;10.010;2023-02-01T03:36:50;6.40;99.90
5280;DHT22;2663;53.588;10.010;2023-02-01T03:39:42;6.20;99.90
5280;DHT22;2663;53.588;10.010;2023-02-01T03:51:03;6.20;99.90
5280;DHT22;2663;53.588;10.010;2023-02-01T03:53:31;6.30;99.90
5280;DHT22;2663;53.588;10.010;2023-02-01T03:55:59;6.30;99.90
5280;DHT22;2663;53.588;10.010;2023-02-01T03:58:25;6.20;99.90
5280;DHT22;2663;53.588;10.010;2023-02-01T04:00:56;6.20;99.90
5280;DHT22;2663;53.588;10.010;2023-02-01T04:03:24;6.20;99.90
5280;DHT22;2663;53.588;10.010;2023-02-01T04:05:51;6.20;99.90
5280;DHT22;2663;53.588;10.010;2023-02-01T04:08:20;6.20;99.90
5280;DHT22;2663;53.588;10.010;2023-02-01T04:10:47;6.20;99.90
5280;DHT22;2663;53.588;10.010;2023-02-01T04:13:14;6.10;99.90
5280;DHT22;2663;53.588;10.010;2023-02-01T04:15:40;6.10;99.90
5280;DHT22;2663;53.588;10.010;2023-02-01T04:18:07;6.10;99.90
5280;DHT22;2663;53.588;10.010;2023-02-01T04:20:33;6.10;99.90
5280;DHT22;2663;53.588;10.010;2023-02-01T04:23:00;6.10;99.90
5280;DHT22;2663;53.588;10.010;2023-02-01T04:25:29;6.10;99.90
5280;DHT22;2663;53.588;10.010;2023-02-01T04:27:56;6.20;99.90
5280;DHT22;2663;53.588;10.010;2023-02-01T04:30:22;6.20;99.90
5280;DHT22;2663;53.588;10.010;2023-02-01T04:32:50;6.20;99.90
5280;DHT22;2663;53.588;10.010;2023-02-01T04:35:17;6.10;99.90
5280;DHT22;2663;53.588;10.010;2023-02-01T04:37:44;6.10;99.90
5280;DHT22;2663;53.588;10.010;2023-02-01T04:40:11;6.20;99.90
5280;DHT22;2663;53.588;10.010;2023-02-01T04:42:38;6.10;99.90
5280;DHT22;2663;53.588;10.010;2023-02-01T04:45:05;6.10;99.90
5280;DHT22;2663;53.588;10.010;2023-02-01T04:47:32;6.10;99.90
5280;DHT22;2663;53.588;10.010;2023-02-01T04:49:58;6.00;99.90
5280;DHT22;2663;53.588;10.010;2023-02-01T04:52:25;6.00;99.90
5280;DHT22;2663;53.588;10.010;2023-02-01T04:54:52;6.40;99.90
5280;DHT22;2663;53.588;10.010;2023-02-01T04:57:20;6.00;99.90
5280;DHT22;2663;53.588;10.010;2023-02-01T04:59:47;5.90;99.90
5280;DHT22;2663;53.588;10.010;2023-02-01T05:02:13;5.90;99.90
5280;DHT22;2663;53.588;10.010;2023-02-01T05:04:40;6.00;99.90
5280;DHT22;2663;53.588;10.010;2023-02-01T05:07:07;5.90;99.90
5280;DHT22;2663;53.588;10.010;2023-02-01T05:09:33;5.70;99.90
5280;DHT22;2663;53.588;10.010;2023-02-01T05:12:00;5.60;99.90
5280;DHT22;2663;53.588;10.010;2023-02-01T05:14:45;5.60;99.90
5280;DHT22;2663;53.588;10.010;2023-02-01T05:17:12;5.50;99.90
5280;DHT22;2663;53.588;10.010;2023-02-01T05:19:38;5.30;99.90
5280;DHT22;2663;53.588;10.010;2023-02-01T05:22:05;5.20;99.90
5280;DHT22;2663;53.588;10.010;2023-02-01T05:24:31;4.90;99.90
5280;DHT22;2663;53.588;10.010;2023-02-01T05:26:58;4.90;99.90
5280;DHT22;2663;53.588;10.010;2023-02-01T05:29:25;4.80;99.90
5280;DHT22;2663;53.588;10.010;2023-02-01T05:31:51;4.80;99.90
5280;DHT22;2663;53.588;10.010;2023-02-01T05:34:18;4.80;99.90
5280;DHT22;2663;53.588;10.010;2023-02-01T05:36:45;4.80;99.90
5280;DHT22;2663;53.588;10.010;2023-02-01T05:39:11;4.90;99.90
5280;DHT22;2663;53.588;10.010;2023-02-01T05:41:38;4.90;99.90
5280;DHT22;2663;53.588;10.010;2023-02-01T05:44:05;5.00;99.90
5280;DHT22;2663;53.588;10.010;2023-02-01T05:46:34;5.10;99.90
5280;DHT22;2663;53.588;10.010;2023-02-01T05:49:01;4.80;99.90
5280;DHT22;2663;53.588;10.010;2023-02-01T05:51:28;4.80;99.90
5280;DHT22;2663;53.588;10.010;2023-02-01T05:53:55;4.70;99.90
5280;DHT22;2663;53.588;10.010;2023-02-01T05:56:22;5.60;99.90
5280;DHT22;2663;53.588;10.010;2023-02-01T05:58:48;4.50;99.90
5280;DHT22;2663;53.588;10.010;2023-02-01T06:01:15;5.60;99.90
5280;DHT22;2663;53.588;10.010;2023-02-01T06:03:42;4.40;99.90
5280;DHT22;2663;53.588;10.010;2023-02-01T06:06:08;4.40;99.90
5280;DHT22;2663;53.588;10.010;2023-02-01T06:08:35;4.60;99.90
5280;DHT22;2663;53.588;10.010;2023-02-01T06:11:03;4.40;99.90
5280;DHT22;2663;53.588;10.010;2023-02-01T06:13:31;4.40;99.90
5280;DHT22;2663;53.588;10.010;2023-02-01T06:16:01;4.40;99.90
5280;DHT22;2663;53.588;10.010;2023-02-01T06:18:28;4.50;99.90
5280;DHT22;2663;53.588;10.010;2023-02-01T06:20:57;4.50;99.90
5280;DHT22;2663;53.588;10.010;2023-02-01T06:23:30;4.70;99.90
5280;DHT22;2663;53.588;10.010;2023-02-01T06:26:01;4.60;99.90
5280;DHT22;2663;53.588;10.010;2023-02-01T06:28:28;4.70;99.90
5280;DHT22;2663;53.588;10.010;2023-02-01T06:30:55;4.80;99.90
5280;DHT22;2663;53.588;10.010;2023-02-01T06:33:25;4.70;99.90
5280;DHT22;2663;53.588;10.010;2023-02-01T06:35:59;4.80;99.90
5280;DHT22;2663;53.588;10.010;2023-02-01T06:38:26;4.90;99.90
5280;DHT22;2663;53.588;10.010;2023-02-01T06:40:55;5.00;99.90
5280;DHT22;2663;53.588;10.010;2023-02-01T06:43:22;4.90;99.90
5280;DHT22;2663;53.588;10.010;2023-02-01T06:45:50;5.00;99.90
5280;DHT22;2663;53.588;10.010;2023-02-01T06:48:17;5.10;99.90
5280;DHT22;2663;53.588;10.010;2023-02-01T06:50:44;5.10;99.90
5280;DHT22;2663;53.588;10.010;2023-02-01T06:53:11;6.20;99.90
5280;DHT22;2663;53.588;10.010;2023-02-01T06:55:38;5.30;99.90
5280;DHT22;2663;53.588;10.010;2023-02-01T06:58:04;5.70;99.90
5280;DHT22;2663;53.588;10.010;2023-02-01T07:00:31;5.90;99.90
5280;DHT22;2663;53.588;10.010;2023-02-01T07:02:58;5.60;99.90
5280;DHT22;2663;53.588;10.010;2023-02-01T07:05:26;5.50;99.90
5280;DHT22;2663;53.588;10.010;2023-02-01T07:07:53;5.50;99.90
5280;DHT22;2663;53.588;10.010;2023-02-01T07:10:19;5.50;99.90
5280;DHT22;2663;53.588;10.010;2023-02-01T07:12:46;5.50;99.90
5280;DHT22;2663;53.588;10.010;2023-02-01T07:15:13;5.50;99.90
5280;DHT22;2663;53.588;10.010;2023-02-01T07:17:40;5.50;99.90
5280;DHT22;2663;53.588;10.010;2023-02-01T07:20:07;5.50;99.90
5280;DHT22;2663;53.588;10.010;2023-02-01T07:22:34;5.50;99.90
5280;DHT22;2663;53.588;10.010;2023-02-01T07:25:00;5.50;99.90
5280;DHT22;2663;53.588;10.010;2023-02-01T07:27:27;5.50;99.90
5280;DHT22;2663;53.588;10.010;2023-02-01T07:29:54;5.50;99.90
5280;DHT22;2663;53.588;10.010;2023-02-01T07:32:22;5.60;99.90
5280;DHT22;2663;53.588;10.010;2023-02-01T07:34:48;5.70;99.90
5280;DHT22;2663;53.588;10.010;2023-02-01T07:37:15;5.70;99.90
5280;DHT22;2663;53.588;10.010;2023-02-01T07:39:41;5.70;99.90
5280;DHT22;2663;53.588;10.010;2023-02-01T07:42:08;7.00;99.90
5280;DHT22;2663;53.588;10.010;2023-02-01T07:44:35;5.50;99.90
5280;DHT22;2663;53.588;10.010;2023-02-01T07:47:01;5.50;99.90
5280;DHT22;2663;53.588;10.010;2023-02-01T07:49:28;5.60;99.90
5280;DHT22;2663;53.588;10.010;2023-02-01T07:51:55;5.60;99.90
5280;DHT22;2663;53.588;10.010;2023-02-01T07:54:21;5.60;99.90
5280;DHT22;2663;53.588;10.010;2023-02-01T07:56:48;5.70;99.90
5280;DHT22;2663;53.588;10.010;2023-02-01T07:59:15;5.80;99.90
5280;DHT22;2663;53.588;10.010;2023-02-01T08:01:42;5.90;99.90
5280;DHT22;2663;53.588;10.010;2023-02-01T08:04:11;6.00;99.90
5280;DHT22;2663;53.588;10.010;2023-02-01T08:06:39;6.00;99.90
5280;DHT22;2663;53.588;10.010;2023-02-01T08:09:06;6.10;99.90
5280;DHT22;2663;53.588;10.010;2023-02-01T08:11:37;6.20;99.90
5280;DHT22;2663;53.588;10.010;2023-02-01T08:14:05;6.20;99.90
5280;DHT22;2663;53.588;10.010;2023-02-01T08:16:33;6.20;99.90
5280;DHT22;2663;53.588;10.010;2023-02-01T08:19:01;6.20;99.90
5280;DHT22;2663;53.588;10.010;2023-02-01T08:21:28;6.30;99.90
5280;DHT22;2663;53.588;10.010;2023-02-01T08:24:05;6.20;99.90
5280;DHT22;2663;53.588;10.010;2023-02-01T08:26:32;6.20;99.90
5280;DHT22;2663;53.588;10.010;2023-02-01T08:29:01;6.30;99.90
5280;DHT22;2663;53.588;10.010;2023-02-01T08:31:30;6.40;99.90
5280;DHT22;2663;53.588;10.010;2023-02-01T08:33:59;6.40;99.90
5280;DHT22;2663;53.588;10.010;2023-02-01T08:36:28;6.50;99.90
5280;DHT22;2663;53.588;10.010;2023-02-01T08:38:56;6.50;99.90
5280;DHT22;2663;53.588;10.010;2023-02-01T08:41:25;6.50;99.90
5280;DHT22;2663;53.588;10.010;2023-02-01T08:43:52;6.50;99.90
5280;DHT22;2663;53.588;10.010;2023-02-01T08:46:21;6.40;99.90
5280;DHT22;2663;53.588;10.010;2023-02-01T08:48:48;6.50;99.90
5280;DHT22;2663;53.588;10.010;2023-02-01T08:51:16;6.40;99.90
5280;DHT22;2663;53.588;10.010;2023-02-01T08:53:44;6.30;99.90
5280;DHT22;2663;53.588;10.010;2023-02-01T08:56:13;6.20;99.90
5280;DHT22;2663;53.588;10.010;2023-02-01T08:58:40;6.20;99.90
5280;DHT22;2663;53.588;10.010;2023-02-01T09:01:09;6.30;99.90
5280;DHT22;2663;53.588;10.010;2023-02-01T09:03:36;6.30;99.90
5280;DHT22;2663;53.588;10.010;2023-02-01T09:06:09;5.20;99.90
5280;DHT22;2663;53.588;10.010;2023-02-01T09:08:37;6.40;99.90
5280;DHT22;2663;53.588;10.010;2023-02-01T09:11:06;6.50;99.90
5280;DHT22;2663;53.588;10.010;2023-02-01T09:13:33;6.60;99.90
5280;DHT22;2663;53.588;10.010;2023-02-01T09:16:02;6.60;99.90
5280;DHT22;2663;53.588;10.010;2023-02-01T09:18:29;6.60;99.90
5280;DHT22;2663;53.588;10.010;2023-02-01T09:20:56;6.60;99.90
5280;DHT22;2663;53.588;10.010;2023-02-01T09:23:22;6.60;99.90
5280;DHT22;2663;53.588;10.010;2023-02-01T09:25:49;6.60;99.90
5280;DHT22;2663;53.588;10.010;2023-02-01T09:28:18;6.80;99.90
5280;DHT22;2663;53.588;10.010;2023-02-01T09:30:45;6.90;99.90
5280;DHT22;2663;53.588;10.010;2023-02-01T09:33:12;7.00;99.90
5280;DHT22;2663;53.588;10.010;2023-02-01T09:35:39;7.00;99.90
5280;DHT22;2663;53.588;10.010;2023-02-01T09:38:06;6.90;99.90
5280;DHT22;2663;53.588;10.010;2023-02-01T09:40:34;7.00;99.90
5280;DHT22;2663;53.588;10.010;2023-02-01T09:43:14;6.90;99.90
5280;DHT22;2663;53.588;10.010;2023-02-01T09:45:59;7.00;99.90
5280;DHT22;2663;53.588;10.010;2023-02-01T09:48:32;7.00;99.90
5280;DHT22;2663;53.588;10.010;2023-02-01T09:51:05;6.90;99.90
5280;DHT22;2663;53.588;10.010;2023-02-01T09:53:40;7.00;99.90
5280;DHT22;2663;53.588;10.010;2023-02-01T09:56:20;7.00;99.90
5280;DHT22;2663;53.588;10.010;2023-02-01T09:59:20;7.00;99.90
5280;DHT22;2663;53.588;10.010;2023-02-01T10:01:50;7.10;99.90
5280;DHT22;2663;53.588;10.010;2023-02-01T10:04:17;7.10;99.90
5280;DHT22;2663;53.588;10.010;2023-02-01T10:10:02;7.40;99.90
5280;DHT22;2663;53.588;10.010;2023-02-01T10:15:58;7.30;99.90
5280;DHT22;2663;53.588;10.010;2023-02-01T10:18:58;7.90;99.90
5280;DHT22;2663;53.588;10.010;2023-02-01T10:21:38;7.60;99.90
5280;DHT22;2663;53.588;10.010;2023-02-01T10:29:42;7.40;99.90
5280;DHT22;2663;53.588;10.010;2023-02-01T10:32:31;7.30;99.90
5280;DHT22;2663;53.588;10.010;2023-02-01T10:35:08;7.30;99.90
5280;DHT22;2663;53.588;10.010;2023-02-01T10:37:41;7.20;99.90
5280;DHT22;2663;53.588;10.010;2023-02-01T10:40:24;7.00;99.90
5280;DHT22;2663;53.588;10.010;2023-02-01T10:42:57;8.00;99.90
5280;DHT22;2663;53.588;10.010;2023-02-01T10:45:28;6.90;99.90
5280;DHT22;2663;53.588;10.010;2023-02-01T10:47:57;6.80;99.90
5280;DHT22;2663;53.588;10.010;2023-02-01T10:50:38;7.90;99.90
5280;DHT22;2663;53.588;10.010;2023-02-01T10:53:15;6.60;99.90
5280;DHT22;2663;53.588;10.010;2023-02-01T10:58:30;6.70;99.90
5280;DHT22;2663;53.588;10.010;2023-02-01T11:01:07;6.70;99.90
5280;DHT22;2663;53.588;10.010;2023-02-01T11:06:17;6.70;99.90
5280;DHT22;2663;53.588;10.010;2023-02-01T11:08:52;6.70;99.90
5280;DHT22;2663;53.588;10.010;2023-02-01T11:11:20;6.70;99.90
5280;DHT22;2663;53.588;10.010;2023-02-01T11:14:04;6.70;99.90
5280;DHT22;2663;53.588;10.010;2023-02-01T11:16:38;6.70;99.90
5280;DHT22;2663;53.588;10.010;2023-02-01T11:19:06;7.30;99.90
5280;DHT22;2663;53.588;10.010;2023-02-01T11:21:33;6.70;99.90
5280;DHT22;2663;53.588;10.010;2023-02-01T11:24:02;6.80;99.90
5280;DHT22;2663;53.588;10.010;2023-02-01T11:26:30;6.90;99.90
5280;DHT22;2663;53.588;10.010;2023-02-01T11:29:11;6.80;99.90
5280;DHT22;2663;53.588;10.010;2023-02-01T11:31:39;6.90;99.90
5280;DHT22;2663;53.588;10.010;2023-02-01T11:34:24;6.90;99.90
5280;DHT22;2663;53.588;10.010;2023-02-01T11:36:51;7.00;99.90
5280;DHT22;2663;53.588;10.010;2023-02-01T11:39:26;7.10;99.90
5280;DHT22;2663;53.588;10.010;2023-02-01T11:42:13;7.00;99.90
5280;DHT22;2663;53.588;10.010;2023-02-01T11:44:43;7.10;99.90
5280;DHT22;2663;53.588;10.010;2023-02-01T11:49:53;7.10;99.90
5280;DHT22;2663;53.588;10.010;2023-02-01T11:52:32;7.00;99.90
5280;DHT22;2663;53.588;10.010;2023-02-01T11:59:02;7.10;99.90
5280;DHT22;2663;53.588;10.010;2023-02-01T12:01:18;7.00;99.90
5280;DHT22;2663;53.588;10.010;2023-02-01T12:06:47;6.90;99.90
5280;DHT22;2663;53.588;10.010;2023-02-01T12:18:23;6.70;99.90
5280;DHT22;2663;53.588;10.010;2023-02-01T12:23:51;6.60;99.90
5280;DHT22;2663;53.588;10.010;2023-02-01T12:29:39;6.50;99.90
5280;DHT22;2663;53.588;10.010;2023-02-01T12:32:18;6.50;99.90
5280;DHT22;2663;53.588;10.010;2023-02-01T12:37:33;6.30;99.90
5280;DHT22;2663;53.588;10.010;2023-02-01T12:40:10;6.20;99.90
5280;DHT22;2663;53.588;10.010;2023-02-01T12:42:43;6.20;99.90
5280;DHT22;2663;53.588;10.010;2023-02-01T12:45:25;6.10;99.90
5280;DHT22;2663;53.588;10.010;2023-02-01T12:48:08;5.90;99.90
5280;DHT22;2663;53.588;10.010;2023-02-01T12:50:49;5.80;99.90
5280;DHT22;2663;53.588;10.010;2023-02-01T12:53:27;5.70;99.90
5280;DHT22;2663;53.588;10.010;2023-02-01T12:56:02;5.70;99.90
5280;DHT22;2663;53.588;10.010;2023-02-01T12:58:43;5.70;99.90
5280;DHT22;2663;53.588;10.010;2023-02-01T13:01:54;5.70;99.90
5280;DHT22;2663;53.588;10.010;2023-02-01T13:06:50;5.70;99.90
5280;DHT22;2663;53.588;10.010;2023-02-01T13:09:36;5.70;99.90
5280;DHT22;2663;53.588;10.010;2023-02-01T13:12:17;5.60;99.90
5280;DHT22;2663;53.588;10.010;2023-02-01T13:14:55;5.70;99.90
5280;DHT22;2663;53.588;10.010;2023-02-01T13:17:28;5.70;99.90
5280;DHT22;2663;53.588;10.010;2023-02-01T13:22:32;5.70;99.90
5280;DHT22;2663;53.588;10.010;2023-02-01T13:25:07;5.70;99.90
5280;DHT22;2663;53.588;10.010;2023-02-01T13:27:39;5.80;99.90
5280;DHT22;2663;53.588;10.010;2023-02-01T13:30:22;5.90;99.90
5280;DHT22;2663;53.588;10.010;2023-02-01T13:43:53;6.20;99.90
5280;DHT22;2663;53.588;10.010;2023-02-01T13:46:21;6.20;99.90
5280;DHT22;2663;53.588;10.010;2023-02-01T13:48:51;6.20;99.90
5280;DHT22;2663;53.588;10.010;2023-02-01T13:53:59;6.40;99.90
5280;DHT22;2663;53.588;10.010;2023-02-01T13:56:26;6.50;99.90
5280;DHT22;2663;53.588;10.010;2023-02-01T13:58:53;6.40;99.90
5280;DHT22;2663;53.588;10.010;2023-02-01T14:03:54;6.20;99.90
5280;DHT22;2663;53.588;10.010;2023-02-01T14:11:49;6.00;99.90
5280;DHT22;2663;53.588;10.010;2023-02-01T14:16:43;5.70;99.90
5280;DHT22;2663;53.588;10.010;2023-02-01T14:19:20;5.70;99.90
5280;DHT22;2663;53.588;10.010;2023-02-01T14:21:54;5.70;99.90
5280;DHT22;2663;53.588;10.010;2023-02-01T14:26:55;5.80;99.90
5280;DHT22;2663;53.588;10.010;2023-02-01T14:29:30;5.80;99.90
5280;DHT22;2663;53.588;10.010;2023-02-01T14:32:17;5.90;99.90
5280;DHT22;2663;53.588;10.010;2023-02-01T14:34:52;5.70;99.90
5280;DHT22;2663;53.588;10.010;2023-02-01T14:42:48;5.70;99.90
5280;DHT22;2663;53.588;10.010;2023-02-01T14:47:49;5.60;99.90
5280;DHT22;2663;53.588;10.010;2023-02-01T14:55:59;5.70;99.90
5280;DHT22;2663;53.588;10.010;2023-02-01T14:58:57;5.70;99.90
5280;DHT22;2663;53.588;10.010;2023-02-01T15:01:31;5.70;99.90
5280;DHT22;2663;53.588;10.010;2023-02-01T15:04:16;5.70;99.90
5280;DHT22;2663;53.588;10.010;2023-02-01T15:06:50;5.70;99.90
5280;DHT22;2663;53.588;10.010;2023-02-01T15:14:42;5.80;99.90
5280;DHT22;2663;53.588;10.010;2023-02-01T15:17:35;5.80;99.90
5280;DHT22;2663;53.588;10.010;2023-02-01T15:20:23;5.80;99.90
5280;DHT22;2663;53.588;10.010;2023-02-01T15:25:29;5.80;99.90
5280;DHT22;2663;53.588;10.010;2023-02-01T15:27:57;5.70;99.90
5280;DHT22;2663;53.588;10.010;2023-02-01T15:30:29;5.70;99.90
5280;DHT22;2663;53.588;10.010;2023-02-01T15:35:42;5.70;99.90
5280;DHT22;2663;53.588;10.010;2023-02-01T15:43:37;5.60;99.90
5280;DHT22;2663;53.588;10.010;2023-02-01T15:46:09;5.60;99.90
5280;DHT22;2663;53.588;10.010;2023-02-01T15:48:43;5.60;99.90
5280;DHT22;2663;53.588;10.010;2023-02-01T15:51:22;5.60;99.90
5280;DHT22;2663;53.588;10.010;2023-02-01T15:54:06;5.70;99.90
5280;DHT22;2663;53.588;10.010;2023-02-01T15:56:36;5.70;99.90
5280;DHT22;2663;53.588;10.010;2023-02-01T15:59:12;5.70;99.90
5280;DHT22;2663;53.588;10.010;2023-02-01T16:01:39;5.70;99.90
5280;DHT22;2663;53.588;10.010;2023-02-01T16:04:24;5.60;99.90
5280;DHT22;2663;53.588;10.010;2023-02-01T16:06:54;5.70;99.90
5280;DHT22;2663;53.588;10.010;2023-02-01T16:09:35;5.90;99.90
5280;DHT22;2663;53.588;10.010;2023-02-01T16:12:03;5.70;99.90
5280;DHT22;2663;53.588;10.010;2023-02-01T16:14:44;5.80;99.90
5280;DHT22;2663;53.588;10.010;2023-02-01T16:17:10;5.80;99.90
5280;DHT22;2663;53.588;10.010;2023-02-01T16:19:37;5.80;99.90
5280;DHT22;2663;53.588;10.010;2023-02-01T16:22:03;5.80;99.90
5280;DHT22;2663;53.588;10.010;2023-02-01T16:24:30;5.80;99.90
5280;DHT22;2663;53.588;10.010;2023-02-01T16:26:58;5.90;99.90
5280;DHT22;2663;53.588;10.010;2023-02-01T16:29:25;5.90;99.90
5280;DHT22;2663;53.588;10.010;2023-02-01T16:31:52;6.00;99.90
5280;DHT22;2663;53.588;10.010;2023-02-01T16:34:19;5.90;99.90
5280;DHT22;2663;53.588;10.010;2023-02-01T16:36:50;6.00;99.90
5280;DHT22;2663;53.588;10.010;2023-02-01T16:39:19;6.00;99.90
5280;DHT22;2663;53.588;10.010;2023-02-01T16:41:47;6.00;99.90
5280;DHT22;2663;53.588;10.010;2023-02-01T16:44:13;6.00;99.90
5280;DHT22;2663;53.588;10.010;2023-02-01T16:46:42;6.20;99.90
5280;DHT22;2663;53.588;10.010;2023-02-01T16:49:21;6.10;99.90
5280;DHT22;2663;53.588;10.010;2023-02-01T16:51:50;6.10;99.90
5280;DHT22;2663;53.588;10.010;2023-02-01T16:54:19;6.20;99.90
5280;DHT22;2663;53.588;10.010;2023-02-01T16:56:47;7.10;99.90
5280;DHT22;2663;53.588;10.010;2023-02-01T16:59:13;7.60;99.90
5280;DHT22;2663;53.588;10.010;2023-02-01T17:01:41;7.50;99.90
5280;DHT22;2663;53.588;10.010;2023-02-01T17:04:09;7.00;99.90
5280;DHT22;2663;53.588;10.010;2023-02-01T17:06:36;6.70;99.90
5280;DHT22;2663;53.588;10.010;2023-02-01T17:09:04;6.50;99.90
5280;DHT22;2663;53.588;10.010;2023-02-01T17:11:31;6.50;99.90
5280;DHT22;2663;53.588;10.010;2023-02-01T17:14:18;6.50;99.90
5280;DHT22;2663;53.588;10.010;2023-02-01T17:16:47;6.50;99.90
5280;DHT22;2663;53.588;10.010;2023-02-01T17:19:17;6.50;99.90
5280;DHT22;2663;53.588;10.010;2023-02-01T17:21:47;6.50;99.90
5280;DHT22;2663;53.588;10.010;2023-02-01T17:24:17;6.50;99.90
5280;DHT22;2663;53.588;10.010;2023-02-01T17:26:44;6.50;99.90
5280;DHT22;2663;53.588;10.010;2023-02-01T17:29:12;6.60;99.90
5280;DHT22;2663;53.588;10.010;2023-02-01T17:31:42;6.60;99.90
5280;DHT22;2663;53.588;10.010;2023-02-01T17:34:13;6.60;99.90
5280;DHT22;2663;53.588;10.010;2023-02-01T17:36:45;6.60;99.90
5280;DHT22;2663;53.588;10.010;2023-02-01T17:39:12;6.60;99.90
5280;DHT22;2663;53.588;10.010;2023-02-01T17:41:59;6.70;99.90
5280;DHT22;2663;53.588;10.010;2023-02-01T17:44:26;6.70;99.90
5280;DHT22;2663;53.588;10.010;2023-02-01T17:46:53;6.70;99.90
5280;DHT22;2663;53.588;10.010;2023-02-01T17:49:21;6.70;99.90
5280;DHT22;2663;53.588;10.010;2023-02-01T17:51:47;6.70;99.90
5280;DHT22;2663;53.588;10.010;2023-02-01T17:54:16;6.60;99.90
5280;DHT22;2663;53.588;10.010;2023-02-01T17:56:45;6.70;99.90
5280;DHT22;2663;53.588;10.010;2023-02-01T17:59:15;6.70;99.90
5280;DHT22;2663;53.588;10.010;2023-02-01T18:01:42;6.70;99.90
5280;DHT22;2663;53.588;10.010;2023-02-01T18:04:15;6.70;99.90
5280;DHT22;2663;53.588;10.010;2023-02-01T18:06:42;6.70;99.90
5280;DHT22;2663;53.588;10.010;2023-02-01T18:09:09;6.80;99.90
5280;DHT22;2663;53.588;10.010;2023-02-01T18:11:36;6.70;99.90
5280;DHT22;2663;53.588;10.010;2023-02-01T18:14:02;6.70;99.90
5280;DHT22;2663;53.588;10.010;2023-02-01T18:16:33;6.70;99.90
5280;DHT22;2663;53.588;10.010;2023-02-01T18:19:01;6.70;99.90
5280;DHT22;2663;53.588;10.010;2023-02-01T18:21:33;6.70;99.90
5280;DHT22;2663;53.588;10.010;2023-02-01T18:24:00;6.70;99.90
5280;DHT22;2663;53.588;10.010;2023-02-01T18:26:27;6.70;99.90
5280;DHT22;2663;53.588;10.010;2023-02-01T18:28:54;6.70;99.90
5280;DHT22;2663;53.588;10.010;2023-02-01T18:31:24;6.70;99.90
5280;DHT22;2663;53.588;10.010;2023-02-01T18:33:53;6.70;99.90
5280;DHT22;2663;53.588;10.010;2023-02-01T18:36:21;6.70;99.90
5280;DHT22;2663;53.588;10.010;2023-02-01T18:38:48;6.70;99.90
5280;DHT22;2663;53.588;10.010;2023-02-01T18:41:17;6.60;99.90
5280;DHT22;2663;53.588;10.010;2023-02-01T18:43:47;6.60;99.90